Asian Infinity — 3EVP3 — position and weather

sailwx.info

Track history (hours):
 
Tides and Currents Weather Stations Pressure Air Temp Water Temp Dewpoint Dewpoint Depression Visibility Wind Speed Wind Dir Waves Ship Positions

Asian Infinity

Last reported at 2017-Jan-18 12:07 UTC. Time now 2017-Jan-20 01:47 UTC.
Position N 34°33' E 134°45'.

Length 104 m; draft 6 m.

Type: Cargo ship. MMSI: 351868000.

Date/timePositionNaut miles runAvg speedWind from/ knotsBaromVisibWave heightAir tempDewpointWater temp
2017-Jan-18 12:07N 34°33' E 134°45'610.0
2017-Jan-18 11:33N 34°35' E 134°52'9 8.6
2017-Jan-18 10:33N 34°37' E 135°02'9 9.0
2017-Jan-18 09:33N 34°36' E 135°13'6 5.7
2017-Jan-18 08:33N 34°42' E 135°15'0 0.0
2017-Jan-18 07:33N 34°42' E 135°15'0 0.0
2017-Jan-18 06:33N 34°42' E 135°15'0 0.0
2017-Jan-18 05:33N 34°42' E 135°15'0 0.0
2017-Jan-18 04:33N 34°42' E 135°15'0 0.0
2017-Jan-18 03:33N 34°42' E 135°15'0 0.0
2017-Jan-18 02:33N 34°42' E 135°15'0 0.0
2017-Jan-18 01:33N 34°42' E 135°15'0 0.0
2017-Jan-18 00:27N 34°42' E 135°15'0 0.0
2017-Jan-17 23:33N 34°42' E 135°15'0 0.1
2017-Jan-17 22:33N 34°42' E 135°15'5 4.9
2017-Jan-17 21:33N 34°37' E 135°14'0 0.2
2017-Jan-17 20:28N 34°37' E 135°13'0 0.0
2017-Jan-17 19:28N 34°37' E 135°13'0 0.0
2017-Jan-17 18:28N 34°37' E 135°13'0 0.0
2017-Jan-17 17:28N 34°37' E 135°13'0 0.1
2017-Jan-17 16:28N 34°37' E 135°13'7 8.0
2017-Jan-17 15:33N 34°30' E 135°12'1110.7
2017-Jan-17 14:32N 34°22' E 135°04'10 9.9
2017-Jan-17 13:33N 34°12' E 134°59'1110.5
2017-Jan-17 12:32N 34°02' E 134°59'239 8.0
2017-Jan-16 06:31N 35°05' E 139°40'1111.0
2017-Jan-16 05:33N 35°14' E 139°46'1010.4
2017-Jan-16 04:33N 35°24' E 139°43'5 4.8
2017-Jan-16 03:32N 35°29' E 139°44'0 0.0
2017-Jan-16 02:32N 35°29' E 139°44'0 0.0
2017-Jan-16 01:32N 35°29' E 139°44'0 0.0
2017-Jan-16 00:32N 35°29' E 139°44'0 0.0
2017-Jan-15 23:29N 35°29' E 139°44'0 0.0
2017-Jan-15 22:32N 35°29' E 139°44'0 0.0
2017-Jan-15 21:32N 35°29' E 139°44'0 0.0
2017-Jan-15 20:32N 35°29' E 139°44'0 0.0
2017-Jan-15 19:32N 35°29' E 139°44'0 0.0
2017-Jan-15 18:32N 35°29' E 139°44'0 0.0
2017-Jan-15 17:32N 35°29' E 139°44'0 0.0
2017-Jan-15 16:32N 35°29' E 139°44'0 0.0
2017-Jan-15 15:29N 35°29' E 139°44'0 0.0
2017-Jan-15 14:32N 35°29' E 139°44'0 0.0
2017-Jan-15 13:32N 35°29' E 139°44'0 0.0
2017-Jan-15 12:32N 35°29' E 139°44'0 0.0
2017-Jan-15 11:29N 35°29' E 139°44'0 0.0
2017-Jan-15 10:32N 35°29' E 139°44'0 0.0
2017-Jan-15 09:32N 35°29' E 139°44'0 0.0
2017-Jan-15 08:32N 35°29' E 139°44'0 0.0
2017-Jan-15 07:33N 35°29' E 139°44'0 0.0
2017-Jan-15 06:30N 35°29' E 139°44'0 0.5
2017-Jan-15 05:33N 35°29' E 139°45'9 8.6
2017-Jan-15 04:34N 35°20' E 139°44'1110.8
2017-Jan-15 03:33N 35°09' E 139°46'  
2017-Jan-11 07:15N 37°53' E 121°50'912.2
2017-Jan-11 06:33N 37°54' E 121°39'1212.4
2017-Jan-11 05:33N 37°56' E 121°24'1212.1
2017-Jan-11 04:33N 37°57' E 121°09'  
Track history (hours):
 
Tides and Currents Weather Stations Pressure Air Temp Water Temp Dewpoint Dewpoint Depression Visibility Wind Speed Wind Dir Waves Ship Positions

Asian Infinity

Last reported at 2017-Jan-18 12:07 UTC. Time now 2017-Jan-20 01:47 UTC.
Position N 34°33' E 134°45'.

Length 104 m; draft 6 m.

Type: Cargo ship. MMSI: 351868000.

Date/timePositionNaut miles runAvg speedWind from/ knotsBaromVisibWave heightAir tempDewpointWater temp
2017-Jan-18 12:07N 34°33' E 134°45'610.0
2017-Jan-18 11:33N 34°35' E 134°52'9 8.6
2017-Jan-18 10:33N 34°37' E 135°02'9 9.0
2017-Jan-18 09:33N 34°36' E 135°13'6 5.7
2017-Jan-18 08:33N 34°42' E 135°15'0 0.0
2017-Jan-18 07:33N 34°42' E 135°15'0 0.0
2017-Jan-18 06:33N 34°42' E 135°15'0 0.0
2017-Jan-18 05:33N 34°42' E 135°15'0 0.0
2017-Jan-18 04:33N 34°42' E 135°15'0 0.0
2017-Jan-18 03:33N 34°42' E 135°15'0 0.0
2017-Jan-18 02:33N 34°42' E 135°15'0 0.0
2017-Jan-18 01:33N 34°42' E 135°15'0 0.0
2017-Jan-18 00:27N 34°42' E 135°15'0 0.0
2017-Jan-17 23:33N 34°42' E 135°15'0 0.1
2017-Jan-17 22:33N 34°42' E 135°15'5 4.9
2017-Jan-17 21:33N 34°37' E 135°14'0 0.2
2017-Jan-17 20:28N 34°37' E 135°13'0 0.0
2017-Jan-17 19:28N 34°37' E 135°13'0 0.0
2017-Jan-17 18:28N 34°37' E 135°13'0 0.0
2017-Jan-17 17:28N 34°37' E 135°13'0 0.1
2017-Jan-17 16:28N 34°37' E 135°13'7 8.0
2017-Jan-17 15:33N 34°30' E 135°12'1110.7
2017-Jan-17 14:32N 34°22' E 135°04'10 9.9
2017-Jan-17 13:33N 34°12' E 134°59'1110.5
2017-Jan-17 12:32N 34°02' E 134°59'239 8.0
2017-Jan-16 06:31N 35°05' E 139°40'1111.0
2017-Jan-16 05:33N 35°14' E 139°46'1010.4
2017-Jan-16 04:33N 35°24' E 139°43'5 4.8
2017-Jan-16 03:32N 35°29' E 139°44'0 0.0
2017-Jan-16 02:32N 35°29' E 139°44'0 0.0
2017-Jan-16 01:32N 35°29' E 139°44'0 0.0
2017-Jan-16 00:32N 35°29' E 139°44'0 0.0
2017-Jan-15 23:29N 35°29' E 139°44'0 0.0
2017-Jan-15 22:32N 35°29' E 139°44'0 0.0
2017-Jan-15 21:32N 35°29' E 139°44'0 0.0
2017-Jan-15 20:32N 35°29' E 139°44'0 0.0
2017-Jan-15 19:32N 35°29' E 139°44'0 0.0
2017-Jan-15 18:32N 35°29' E 139°44'0 0.0
2017-Jan-15 17:32N 35°29' E 139°44'0 0.0
2017-Jan-15 16:32N 35°29' E 139°44'0 0.0
2017-Jan-15 15:29N 35°29' E 139°44'0 0.0
2017-Jan-15 14:32N 35°29' E 139°44'0 0.0
2017-Jan-15 13:32N 35°29' E 139°44'0 0.0
2017-Jan-15 12:32N 35°29' E 139°44'0 0.0
2017-Jan-15 11:29N 35°29' E 139°44'0 0.0
2017-Jan-15 10:32N 35°29' E 139°44'0 0.0
2017-Jan-15 09:32N 35°29' E 139°44'0 0.0
2017-Jan-15 08:32N 35°29' E 139°44'0 0.0
2017-Jan-15 07:33N 35°29' E 139°44'0 0.0
2017-Jan-15 06:30N 35°29' E 139°44'0 0.5
2017-Jan-15 05:33N 35°29' E 139°45'9 8.6
2017-Jan-15 04:34N 35°20' E 139°44'1110.8
2017-Jan-15 03:33N 35°09' E 139°46'  
2017-Jan-11 07:15N 37°53' E 121°50'912.2
2017-Jan-11 06:33N 37°54' E 121°39'1212.4
2017-Jan-11 05:33N 37°56' E 121°24'1212.1
2017-Jan-11 04:33N 37°57' E 121°09'  

Dump ship's entire track history